Turtle Creek, PA (15145)

8:58 AM EDT on July 24, 2016 (GMT -0400)
Monroeville | | Change Station
Active Advisory: Heat Advisory Active Notice: Local Storm Report

Elev 1001 ft 40.41 °N, 79.81 °W | Updated 33 seconds ago

Partly Cloudy
Partly Cloudy
75.6 °F
Feels Like 76 °F
N
0.0
Wind Variable Wind from ENE
Gusts 1.0 mph

Today
High -- | Low -- °F
--% Chance of Precip.
Yesterday
High -- | Low -- °F
Precip. -- in
Pressure 30.03 in
Visibility 9.0 miles
Clouds Few 3900 ft
Heat Index 76 °F
Dew Point 72 °F
Humidity 88%
Rainfall 0.25 in
Snow Depth Not available.
6:09 AM 8:41 PM
Waning Gibbous, 76% visible
METAR KAGC 241253Z 00000KT 9SM FEW039 23/21 A3004 RMK AO2 SLP167 HZ E-SW T02330206 $
Pressure 30.03 in
Visibility 9.0 miles
Clouds Few 3900 ft
Heat Index 76 °F
Dew Point 72 °F
Humidity 88%
Rainfall 0.25 in
Snow Depth Not available.
6:09 AM 8:41 PM
Waning Gibbous, 76% visible
METAR KAGC 241253Z 00000KT 9SM FEW039 23/21 A3004 RMK AO2 SLP167 HZ E-SW T02330206 $

10-Day Weather Forecast

Almanac

Astronomy

Jul. 24, 2016 Rise Set
Actual Time
Civil Twilight
Nautical Twilight
Astronomical Twilight
Moon
Length of Visible Light
Length of Day
Tomorrow will be .
, % of the Moon is Illuminated

Today's Extremes

State Highs State Lows

Community

WunderPhotos

Upload Photos

1,927,054 photos uploaded!

WunderBlog® & News

Nearby

Air Quality

  Air Quality AQ Index Pollutant
Not available.

Snow Depth

Station Depth Elevation

Earthquake Activity

City Distance Mag. Time & Date
Minimum magnitude displayed is 2.5.

Coastal Water Temperatures

Place Temperature

Stations

Nearby Weather Stations

Station Location Temp. Windchill Dew Point Humidity Wind Precip. Elev Updated Type
                   

Watches & Warnings

Heat Advisory
Issued: 6:29 AM EDT Jul. 24, 2016 – National Weather Service

... Heat advisory remains in effect from noon today to 8 PM EDT
this evening...

* heat index values... 100 to 105 during the afternoon and early
evening hours.

* High temperatures... lower to mid 90s.

* Dewpoints... lower 70s.

* Impacts... heat related illnesses will begin to be seen. If you
are susceptible to heat... limit your outdoor activity.

Precautionary/preparedness actions...

A heat advisory means that a period of hot temperatures is
expected. The combination of hot temperatures and high humidity
will combine to create a situation in which heat illnesses are
possible. Drink plenty of fluids... stay in an air-conditioned
room... stay out of the sun... and check up on relatives and
neighbors.